ADDS METAR Data INFO
IDs: Format: Raw Decoded Include TAF

Data at: 0511 UTC 23 May 2017

KRFI 230455Z AUTO 01003KT 10SM OVC005 16/16 A2994 RMK AO2 T01610161
KRFI 230435Z AUTO 03004KT 10SM OVC005 16/16 A2994 RMK AO2 T01610161
KRFI 230415Z AUTO 00000KT 10SM OVC005 16/16 A2995 RMK AO2 T01610161
KRFI 230355Z AUTO 02004KT 10SM OVC005 16/16 A2994 RMK AO2 T01620162
KRFI 230335Z AUTO 03004KT 10SM OVC005 16/16 A2995 RMK AO2 T01610161
KRFI 230315Z AUTO 05003KT 10SM OVC005 16/16 A2994 RMK AO2 T01610161
KRFI 230255Z AUTO 04005KT 10SM OVC005 16/16 A2994 RMK AO2 T01600160
KRFI 230235Z AUTO 03006KT 10SM OVC005 16/16 A2994 RMK AO2 T01610161
KRFI 230215Z AUTO 04004KT 10SM OVC005 16/16 A2994 RMK AO2 T01600160
KRFI 230155Z AUTO 04006KT 10SM OVC005 16/16 A2994 RMK AO2 T01600160
KRFI 230135Z AUTO 03006KT 10SM OVC005 16/16 A2994 RMK AO2 T01600160
KRFI 230115Z AUTO 02007KT 5SM BR OVC005 16/16 A2994 RMK AO2 T01620162
KRFI 230055Z AUTO 03005KT 5SM BR OVC005 16/16 A2994 RMK AO2 T01630163
KRFI 230035Z AUTO 02007KT 5SM BR BKN005 OVC010 17/17 A2994 RMK AO2 LTG DSNT NW T01660166
KRFI 230015Z AUTO 03005KT 10SM BKN005 OVC010 17/17 A2994 RMK AO2 T01660166
KRFI 222355Z AUTO 02005KT 10SM BKN005 OVC015 17/17 A2994 RMK AO2 LTG DSNT NW 60005 T01670167
KRFI 222335Z AUTO 04006KT 5SM BR OVC005 17/17 A2995 RMK AO2 T01650165
KRFI 222315Z AUTO 03008KT 4SM BR OVC005 17/17 A2996 RMK AO2 T01660166
KRFI 222255Z AUTO 03005KT 7SM OVC007 17/17 A2996 RMK AO2 T01670167
KRFI 222235Z AUTO 05005KT 10SM OVC007 17/17 A2996 RMK AO2 T01680168
KRFI 222215Z AUTO 04007KT 10SM OVC007 17/17 A2997 RMK AO2 T01710170
KRFI 222155Z AUTO 06007KT 7SM BKN007 OVC011 17/17 A2997 RMK AO2 T01710171
KRFI 222135Z AUTO 04007KT 10SM OVC009 17/17 A2998 RMK AO2 T01730169
KRFI 222115Z AUTO 02007KT 10SM OVC009 18/17 A2998 RMK AO2 T01750173
KRFI 222055Z AUTO 06005KT 10SM OVC009 17/17 A2998 RMK AO2 60005 T01730173
KRFI 222035Z AUTO 05005KT 10SM BKN007 OVC011 A3001 RMK AO2
KRFI 222015Z AUTO 02005KT 10SM BKN007 OVC011 A3001 RMK AO2
KRFI 221955Z AUTO 04005KT 10SM SCT007 OVC011 A3002 RMK AO2
KRFI 221935Z AUTO 06004KT 10SM -DZ OVC011 A3002 RMK AO2
KRFI 221915Z AUTO 07007KT 030V100 10SM -DZ BKN008 OVC011 A3002 RMK AO2
KRFI 221855Z AUTO 08006KT 10SM -DZ BKN008 OVC015 A3002 RMK AO2 P0005
KRFI 221835Z AUTO 03004KT 5SM -RA OVC006 A3004 RMK AO2 P0004
KRFI 221815Z AUTO 04004KT 10SM -RA OVC006 A3005 RMK AO2 P0001
KRFI 221755Z AUTO 06005KT 7SM -RA OVC006 A3005 RMK AO2 P0009 60040
KRFI 221735Z AUTO 05005KT 4SM RA OVC006 A3005 RMK AO2 P0006
KRFI 221715Z AUTO 05005KT 10SM RA OVC008 A3006 RMK AO2 P0001
KRFI 221655Z AUTO 09003KT 10SM -RA OVC010 A3007 RMK AO2 P0002
KRFI 221635Z AUTO 06005KT 10SM -RA OVC010 A3007 RMK AO2 P0001
KRFI 221615Z AUTO 09004KT 10SM RA SCT008 BKN045 OVC070 A3008 RMK AO2 P0001
KRFI 221555Z AUTO 09006KT 10SM RA SCT049 BKN060 OVC080 A3006 RMK AO2 P0006
KRFI 221535Z AUTO 09007KT 10SM RA SCT050 BKN070 OVC110 A3006 RMK AO2 P0001
KRFI 221515Z AUTO 09008KT 10SM -RA SCT031 BKN090 OVC110 A3006 RMK AO2
KRFI 221455Z AUTO 10008KT 070V130 7SM RA SCT030 BKN050 OVC065 A3006 RMK AO2 P0007 60022
KRFI 221435Z AUTO 09009KT 10SM RA SCT050 OVC075 15/15 A3007 RMK AO2 P0003 T01530153
KRFI 221415Z AUTO 08005G14KT 10SM -RA SCT055 BKN065 OVC090 15/15 A3009 RMK AO2 P0001 T01520152
KRFI 221355Z AUTO 08007G14KT 10SM -RA SCT046 OVC065 15/15 A3008 RMK AO2 P0003 T01520152
KRFI 221335Z AUTO 09008KT 060V120 10SM -RA SCT050 BKN065 OVC090 16/16 A3008 RMK AO2 P0002 T01570157
KRFI 221315Z AUTO 08009KT 10SM -RA SCT055 BKN065 OVC090 16/16 A3008 RMK AO2 T01580158
KRFI 221255Z AUTO 07006KT 10SM -RA SCT055 OVC065 16/16 A3009 RMK AO2 P0012 T01580158
KRFI 221235Z AUTO 04006KT 7SM RA SCT065 BKN075 OVC080 16/16 A3009 RMK AO2 P0010 T01580158
KRFI 221215Z AUTO 06008KT 5SM RA SCT050 BKN060 OVC075 16/16 A3010 RMK AO2 P0006 T01610161
KRFI 221155Z AUTO 08006KT 7SM RA SCT043 BKN060 OVC070 16/16 A3011 RMK AO2 P0017 60019 70112 T01640164 10175 20163
KRFI 221135Z AUTO 07003KT 5SM RA SCT027 BKN041 OVC050 17/17 A3012 RMK AO2 P0013 T01660166
KRFI 221115Z AUTO 00000KT 10SM -RA OVC055 17/17 A3014 RMK AO2 P0001 T01680168
KRFI 221055Z AUTO 00000KT 10SM BKN060 OVC080 17/17 A3012 RMK AO2 T01700170
KRFI 221035Z AUTO 05003KT 10SM SCT060 OVC080 17/17 A3010 RMK AO2 T01700166
KRFI 221015Z AUTO 05003KT 10SM OVC080 17/17 A3010 RMK AO2 T01700165
KRFI 220955Z AUTO 03008KT 10SM OVC080 17/17 A3008 RMK AO2 P0002 T01700169
KRFI 220935Z AUTO 03007KT 10SM -RA SCT047 SCT060 OVC070 17/17 A3009 RMK AO2 P0002 T01700170
KRFI 220915Z AUTO 02005KT 10SM RA SCT047 SCT060 OVC070 17/17 A3011 RMK AO2 P0001 T01710171
KRFI 220855Z AUTO 01005KT 10SM -RA BKN070 OVC085 17/17 A3011 RMK AO2 T01710170
KRFI 220835Z AUTO 03005KT 10SM BKN085 OVC110 17/17 A3010 RMK AO2 T01710165
KRFI 220815Z AUTO 04004KT 10SM -DZ SCT070 SCT080 BKN100 17/17 A3010 RMK AO2 T01700168
KRFI 220755Z AUTO 08004KT 10SM -RA SCT070 SCT080 BKN110 17/17 A3011 RMK AO2 T01710167
KRFI 220735Z AUTO 00000KT 10SM -RA SCT070 SCT090 OVC120 17/17 A3012 RMK AO2 T01710169
KRFI 220715Z AUTO 05004KT 10SM -RA BKN070 BKN100 OVC120 17/17 A3010 RMK AO2 T01700170
KRFI 220655Z AUTO 02003KT 10SM BKN110 17/17 A3012 RMK AO2 T01680168
KRFI 220635Z AUTO 00000KT 10SM -DZ OVC110 17/17 A3014 RMK AO2 T01680165
KRFI 220615Z AUTO 28003KT 10SM SCT060 SCT090 OVC120 17/16 A3013 RMK AO2 T01700162
KRFI 220555Z AUTO 25004G09KT 10SM -RA SCT050 SCT065 OVC100 18/16 A3011 RMK AO2 T01750159 10195 20172
KRFI 220535Z AUTO 30006KT 10SM -RA BKN075 OVC100 18/16 A3012 RMK AO2 LTG DSNT NW T01750161
KRFI 220515Z AUTO 30004KT 10SM -RA BKN075 BKN100 BKN120 17/17 A3013 RMK AO2 LTG DSNT W T01720166
KRFI 220455Z AUTO 00000KT 10SM BKN095 BKN120 17/16 A3013 RMK AO2 LTG DSNT SW THRU NW T01740161
KRFI 220435Z AUTO 00000KT 10SM BKN075 BKN085 18/16 A3014 RMK AO2 LTG DSNT SW AND W T01750161
KRFI 220415Z AUTO 11003KT 10SM SCT075 SCT120 17/16 A3014 RMK AO2 T01730161
KRFI 220355Z AUTO 12003KT 10SM SCT120 18/16 A3014 RMK AO2 T01750162
KRFI 220335Z AUTO 00000KT 10SM CLR 17/16 A3013 RMK AO2 LTG DSNT W T01720164
KRFI 220315Z AUTO 00000KT 10SM CLR 18/16 A3012 RMK AO2 T01770160
KRFI 220255Z AUTO 00000KT 10SM CLR 18/16 A3011 RMK AO2 T01760160
KRFI 220235Z AUTO 00000KT 10SM CLR 18/16 A3009 RMK AO2 T01780157
KRFI 220215Z AUTO 00000KT 10SM CLR 18/16 A3011 RMK AO2 T01800157
KRFI 220155Z AUTO 00000KT 10SM CLR 18/16 A3009 RMK AO2 T01780155
KRFI 220135Z AUTO 03004KT 10SM CLR 18/16 A3008 RMK AO2 T01750161
KRFI 220115Z AUTO 04003KT 10SM CLR 17/17 A3009 RMK AO2 T01730165
KRFI 220055Z AUTO 00000KT 10SM CLR 18/16 A3010 RMK AO2 T01830155
KRFI 220035Z AUTO 11003KT 10SM CLR 19/15 A3009 RMK AO2 T01890151
KRFI 220015Z AUTO 35003KT 10SM CLR 19/15 A3008 RMK AO2 T01930148
KRFI 212355Z AUTO 03006KT 10SM CLR 20/15 A3007 RMK AO2 60011 T01950152
KRFI 212335Z AUTO 03003KT 10SM CLR 20/15 A3008 RMK AO2 LTG DSNT W T01960152
KRFI 212315Z AUTO 36004KT 10SM SCT120 20/15 A3010 RMK AO2 T01970153
KRFI 212255Z AUTO 03005KT 10SM SCT120 20/15 A3011 RMK AO2 T02020152
KRFI 212235Z AUTO 02005KT 10SM SCT120 20/16 A3010 RMK AO2 LTG DSNT SE T02040155
KRFI 212215Z AUTO 02006KT 10SM SCT120 20/15 A3011 RMK AO2 T02000149
KRFI 212155Z AUTO 02008KT 10SM SCT120 20/15 A3011 RMK AO2 T02010145
KRFI 212135Z AUTO 03007KT 360V060 10SM CLR 21/15 A3009 RMK AO2 LTG DSNT S T02060153
KRFI 212115Z AUTO 03008KT 10SM SCT012 SCT100 20/16 A3009 RMK AO2 LTG DSNT SE T02020157
KRFI 212055Z AUTO 03009KT 10SM BKN010 BKN014 BKN100 20/16 A3010 RMK AO2 60011 T01970163
KRFI 212035Z AUTO 03008KT 10SM OVC008 19/17 A3011 RMK AO2 T01850166
KRFI 212015Z AUTO 02009G15KT 10SM SCT005 OVC010 18/18 A3011 RMK AO2 T01780178
KRFI 211955Z AUTO 03008KT 10SM BKN003 OVC120 A3010 RMK AO2 P0001
KRFI 211935Z AUTO 02007KT 10SM BKN003 BKN027 OVC110 A3011 RMK AO2 LTG DSNT SE P0001
KRFI 211915Z AUTO 02004KT 7SM -RA SCT003 BKN039 OVC100 A3011 RMK AO2 LTG DSNT SE
KRFI 211855Z AUTO 08005KT 5SM -VCTSRA SCT004 SCT035 OVC095 A3012 RMK AO2 LTG DSNT E AND W P0010
KRFI 211835Z AUTO 00000KT 7SM -TSRA SCT003 SCT024 OVC075 A3015 RMK AO2 LTG DSNT ALQS P0008
KRFI 211815Z AUTO 00000KT 7SM TSRA SCT038 BKN080 OVC095 A3016 RMK AO2 LTG DSNT ALQS P0004
KRFI 211755Z AUTO 12003KT 4SM +TSRA SCT036 SCT050 OVC095 16/16 A3016 RMK AO2 LTG DSNT ALQS P0049 60082 T01570157 10203 20152
KRFI 211735Z AUTO 03006KT 3SM +TSRA SCT027 BKN065 OVC085 16/15 A3015 RMK AO2 LTG DSNT ALQS P0042 T01550151
KRFI 211715Z AUTO 09003G16KT 1 1/2SM +TSRA BKN029 BKN038 OVC055 15/14 A3016 RMK AO2 LTG DSNT ALQS P0025 T01530140


Page loaded:  05:11 UTC  |   10:11 PM Pacific  |   11:11 PM Mountain  |   12:11 AM Central  |   01:11 AM Eastern

 

ADVISORIES

FORECASTS

FORECASTS

OBSERVATIONS

USER TOOLS

ABOUT US